Terminal Aerodrome Forecast
Issued by NWS

Home | Current Version | Previous Version | Text Only | Print | Product List | Glossary On
Versions: 1 2 3 4 5 6 7 8 9 10 11 12 13 14 15 16 17 18 19 20 21 22 23 24 25 26 27 28 29 30 31 32
000
FTUS41 KRNK 021135
TAFBCB
TAF
KBCB 021135Z 0212/0312 24006KT P6SM BKN110 OVC250
     FM021700 24008KT P6SM SCT050 BKN110 OVC250 PROB30 0221/0224
      P6SM -TSRA BKN050CB
     FM030200 VRB03KT P6SM BKN050 OVC100
     FM030700 00000KT 4SM BR BKN050
      TEMPO 0308/0312 2SM BR=

USA.gov is the U.S. government's official web portal to all federal, state and local government web resources and services.